createdAt,value
2022-07-31T00:02:24.549Z,100.00
2022-07-31T00:04:56.971Z,100.00
2022-07-31T00:07:29.399Z,100.00
2022-07-31T00:10:01.815Z,100.00
2022-07-31T00:12:35.479Z,99.21
2022-07-31T00:15:09.470Z,99.70
2022-07-31T00:17:42.903Z,99.76
2022-07-31T00:20:16.946Z,100.00
2022-07-31T00:22:49.823Z,99.36
2022-07-31T00:25:22.246Z,99.36
2022-07-31T00:27:55.282Z,100.00
2022-07-31T00:30:27.651Z,100.00
2022-07-31T00:33:00.058Z,100.00
2022-07-31T00:35:32.602Z,99.95
2022-07-31T00:38:26.189Z,98.45
2022-07-31T00:40:57.394Z,99.45
2022-07-31T00:43:31.662Z,100.00
2022-07-31T00:46:04.157Z,100.00
2022-07-31T00:48:37.121Z,100.00
2022-07-31T00:51:10.415Z,98.84
2022-07-31T00:53:42.798Z,96.56
2022-07-31T00:56:15.228Z,97.51
2022-07-31T00:58:48.339Z,97.10
2022-07-31T01:01:21.303Z,97.88
2022-07-31T01:03:54.152Z,95.87
2022-07-31T01:06:26.691Z,96.93
2022-07-31T01:08:59.298Z,97.17
2022-07-31T01:11:41.791Z,97.47
2022-07-31T01:14:19.247Z,97.72
2022-07-31T01:16:53.861Z,97.82
2022-07-31T01:19:42.346Z,97.37
2022-07-31T01:22:32.913Z,97.15
2022-07-31T01:25:14.277Z,97.71
2022-07-31T01:28:02.734Z,98.90
2022-07-31T01:31:05.309Z,98.65
2022-07-31T01:33:51.992Z,98.68
2022-07-31T01:36:30.687Z,98.70
2022-07-31T01:39:04.144Z,97.86
2022-07-31T01:41:41.628Z,96.67
2022-07-31T01:44:17.518Z,98.01
2022-07-31T01:46:53.055Z,99.42
2022-07-31T01:49:28.399Z,99.66
2022-07-31T01:52:04.988Z,99.80
2022-07-31T01:54:38.674Z,100.00
2022-07-31T01:57:11.903Z,100.00
2022-07-31T01:59:55.602Z,100.00
2022-07-31T02:02:50.831Z,99.66
2022-07-31T02:05:27.744Z,99.02
2022-07-31T02:08:01.286Z,98.28
2022-07-31T02:10:35.799Z,98.72
2022-07-31T02:13:11.223Z,98.79
2022-07-31T02:15:45.626Z,99.22
2022-07-31T02:18:22.695Z,99.71
2022-07-31T02:21:10.443Z,99.18
2022-07-31T02:23:43.118Z,99.61
2022-07-31T02:26:16.662Z,99.68
2022-07-31T02:28:49.716Z,100.00
2022-07-31T02:31:24.032Z,100.00
2022-07-31T02:33:57.242Z,100.00
2022-07-31T02:36:33.876Z,100.00
2022-07-31T02:39:08.091Z,100.00
2022-07-31T02:41:41.603Z,100.00
2022-07-31T02:44:15.419Z,100.00
2022-07-31T02:47:01.756Z,100.00
2022-07-31T02:49:35.381Z,99.79
2022-07-31T02:52:09.102Z,100.00
2022-07-31T02:54:43.722Z,100.00
2022-07-31T02:57:17.116Z,100.00
2022-07-31T02:59:49.743Z,100.00
2022-07-31T03:02:22.250Z,100.00
2022-07-31T03:04:55.371Z,100.00
2022-07-31T03:07:30.847Z,100.00
2022-07-31T03:10:03.877Z,100.00
2022-07-31T03:12:50.886Z,100.00
2022-07-31T03:15:26.391Z,100.00
2022-07-31T03:18:00.535Z,100.00
2022-07-31T03:20:44.029Z,100.00
2022-07-31T03:23:16.657Z,100.00
2022-07-31T03:26:00.113Z,100.00
2022-07-31T03:28:33.683Z,100.00
2022-07-31T03:31:07.508Z,100.00
2022-07-31T03:33:39.936Z,100.00
2022-07-31T03:36:13.042Z,99.93
2022-07-31T03:38:50.457Z,100.00
2022-07-31T03:41:36.346Z,100.00
2022-07-31T03:44:09.359Z,100.00
2022-07-31T03:46:41.991Z,100.00
2022-07-31T03:49:15.007Z,100.00
2022-07-31T03:51:49.243Z,100.00
2022-07-31T03:54:22.203Z,100.00
2022-07-31T03:57:02.979Z,100.00
2022-07-31T03:59:37.207Z,100.00
2022-07-31T04:02:13.601Z,100.00
2022-07-31T04:04:52.727Z,100.00
2022-07-31T04:07:27.008Z,100.00
2022-07-31T04:09:59.659Z,100.00
2022-07-31T04:12:32.255Z,100.00
2022-07-31T04:15:05.618Z,100.00
2022-07-31T04:17:38.142Z,100.00
2022-07-31T04:20:12.136Z,100.00
2022-07-31T04:22:45.358Z,100.00
2022-07-31T04:25:33.835Z,100.00
2022-07-31T04:28:29.735Z,100.00
2022-07-31T04:31:02.222Z,100.00
2022-07-31T04:33:46.361Z,100.00
2022-07-31T04:36:29.910Z,100.00
2022-07-31T04:39:05.996Z,100.00
2022-07-31T04:41:39.156Z,100.00
2022-07-31T04:44:11.627Z,100.00
2022-07-31T04:47:16.179Z,100.00
2022-07-31T04:49:52.582Z,100.00
2022-07-31T04:52:25.053Z,100.00
2022-07-31T04:54:58.165Z,100.00
2022-07-31T04:57:32.599Z,100.00
2022-07-31T05:00:06.273Z,100.00
2022-07-31T05:02:39.706Z,100.00
2022-07-31T05:05:12.915Z,100.00
2022-07-31T05:07:47.634Z,100.00
2022-07-31T05:10:43.359Z,100.00
2022-07-31T05:13:16.144Z,100.00
2022-07-31T05:15:49.166Z,100.00
2022-07-31T05:18:21.601Z,100.00
2022-07-31T05:21:13.203Z,100.00
2022-07-31T05:24:22.605Z,100.00
2022-07-31T05:27:14.449Z,100.00
2022-07-31T05:29:48.019Z,100.00
2022-07-31T05:32:21.264Z,100.00
2022-07-31T05:34:53.719Z,100.00
2022-07-31T05:37:26.863Z,100.00
2022-07-31T05:39:59.329Z,100.00
2022-07-31T05:42:52.956Z,100.00
2022-07-31T05:45:47.856Z,100.00
2022-07-31T05:48:20.316Z,99.21
2022-07-31T05:50:53.419Z,99.25
2022-07-31T05:53:26.160Z,99.24
2022-07-31T05:56:17.297Z,99.49
2022-07-31T05:58:55.225Z,100.00
2022-07-31T06:01:27.885Z,100.00
2022-07-31T06:04:00.364Z,100.00
2022-07-31T06:06:37.806Z,100.00
2022-07-31T06:09:10.547Z,99.69
2022-07-31T06:11:47.310Z,98.78
2022-07-31T06:14:20.473Z,94.25
2022-07-31T06:17:05.370Z,92.50
2022-07-31T06:19:39.162Z,91.37
2022-07-31T06:22:11.648Z,89.57
2022-07-31T06:24:44.091Z,90.58
2022-07-31T06:27:34.049Z,91.26
2022-07-31T06:30:10.488Z,91.23
2022-07-31T06:32:43.205Z,90.50
2022-07-31T06:35:16.035Z,90.94
2022-07-31T06:38:11.344Z,91.45
2022-07-31T06:41:03.760Z,90.55
2022-07-31T06:43:43.924Z,91.32
2022-07-31T06:46:48.698Z,90.32
2022-07-31T06:49:47.855Z,91.17
2022-07-31T06:52:20.380Z,90.28
2022-07-31T06:54:52.859Z,91.80
2022-07-31T06:57:25.284Z,92.09
2022-07-31T06:59:57.857Z,91.03
2022-07-31T07:02:30.938Z,88.48
2022-07-31T07:05:06.470Z,87.92
2022-07-31T07:07:40.180Z,88.29
2022-07-31T07:10:14.367Z,87.38
2022-07-31T07:13:13.083Z,87.37
2022-07-31T07:15:46.879Z,85.60
2022-07-31T07:18:21.462Z,83.87
2022-07-31T07:20:56.714Z,85.30
2022-07-31T07:23:30.998Z,85.67
2022-07-31T07:26:21.221Z,90.93
2022-07-31T07:28:54.131Z,89.19
2022-07-31T07:31:26.543Z,87.72
2022-07-31T07:34:20.846Z,88.08
2022-07-31T07:36:53.375Z,88.80
2022-07-31T07:39:29.178Z,88.35
2022-07-31T07:42:02.381Z,87.61
2022-07-31T07:44:35.100Z,87.32
2022-07-31T07:47:07.984Z,87.48
2022-07-31T07:49:41.135Z,88.23
2022-07-31T07:52:30.353Z,86.72
2022-07-31T07:55:26.342Z,88.00
2022-07-31T07:58:17.438Z,88.94
2022-07-31T08:01:16.326Z,89.39
2022-07-31T08:03:53.525Z,89.16
2022-07-31T08:06:26.598Z,90.33
2022-07-31T08:08:59.017Z,90.58
2022-07-31T08:11:49.803Z,91.55
2022-07-31T08:14:30.411Z,93.16
2022-07-31T08:17:28.594Z,92.82
2022-07-31T08:20:00.969Z,93.44
2022-07-31T08:22:34.149Z,92.41
2022-07-31T08:25:07.271Z,91.29
2022-07-31T08:27:48.589Z,91.40
2022-07-31T08:30:21.212Z,91.61
2022-07-31T08:32:54.385Z,91.23
2022-07-31T08:35:34.712Z,90.45
2022-07-31T08:38:08.035Z,88.24
2022-07-31T08:40:56.691Z,89.59
2022-07-31T08:44:02.668Z,90.30
2022-07-31T08:46:23.841Z,88.87
2022-07-31T08:48:57.879Z,88.28
2022-07-31T08:51:31.988Z,87.46
2022-07-31T08:54:42.352Z,86.63
2022-07-31T08:57:15.458Z,87.88
2022-07-31T08:59:51.678Z,85.64
2022-07-31T09:02:24.241Z,84.22
2022-07-31T09:05:16.142Z,83.71
2022-07-31T09:07:48.627Z,86.36
2022-07-31T09:10:23.767Z,85.13
2022-07-31T09:12:57.212Z,80.77
2022-07-31T09:15:33.607Z,81.79
2022-07-31T09:18:18.923Z,80.57
2022-07-31T09:20:57.741Z,83.00
2022-07-31T09:23:31.415Z,82.38
2022-07-31T09:26:06.712Z,81.90
2022-07-31T09:28:40.947Z,82.74
2022-07-31T09:31:13.644Z,83.15
2022-07-31T09:34:00.938Z,83.77
2022-07-31T09:36:42.198Z,83.51
2022-07-31T09:39:51.835Z,82.11
2022-07-31T09:42:45.656Z,81.26
2022-07-31T09:45:29.780Z,78.70
2022-07-31T09:48:03.785Z,77.51
2022-07-31T09:50:36.259Z,79.10
2022-07-31T09:53:08.619Z,78.85
2022-07-31T09:55:49.627Z,78.29
2022-07-31T09:58:23.715Z,77.75
2022-07-31T10:00:57.319Z,77.60
2022-07-31T10:03:30.971Z,77.59
2022-07-31T10:06:05.333Z,75.52
2022-07-31T10:08:39.471Z,76.31
2022-07-31T10:11:39.246Z,77.60
2022-07-31T10:14:22.080Z,74.76
2022-07-31T10:16:58.711Z,76.40
2022-07-31T10:20:06.602Z,76.44
2022-07-31T10:22:58.715Z,75.99
2022-07-31T10:25:38.487Z,76.17
2022-07-31T10:28:11.663Z,72.26
2022-07-31T10:30:45.611Z,70.09
2022-07-31T10:33:42.644Z,71.96
2022-07-31T10:36:36.903Z,69.64
2022-07-31T10:39:35.562Z,68.86
2022-07-31T10:42:29.256Z,67.03
2022-07-31T10:45:06.335Z,67.92
2022-07-31T10:48:11.415Z,66.61
2022-07-31T10:51:08.928Z,67.37
2022-07-31T10:54:14.831Z,65.41
2022-07-31T10:57:24.235Z,65.17
2022-07-31T11:00:17.419Z,65.19
2022-07-31T11:03:16.846Z,67.76
2022-07-31T11:06:08.023Z,67.04
2022-07-31T11:08:58.926Z,63.76
2022-07-31T11:12:04.124Z,63.27
2022-07-31T11:14:51.605Z,63.01
2022-07-31T11:18:21.160Z,63.02
2022-07-31T11:20:31.352Z,62.97
2022-07-31T11:23:05.612Z,61.70
2022-07-31T11:25:38.311Z,60.73
2022-07-31T11:28:13.247Z,61.06
2022-07-31T11:30:50.499Z,59.05
2022-07-31T11:33:41.614Z,58.63
2022-07-31T11:36:19.356Z,58.67
2022-07-31T11:38:55.418Z,59.26
2022-07-31T11:41:29.097Z,62.34
2022-07-31T11:44:10.516Z,61.49
2022-07-31T11:46:42.929Z,60.43
2022-07-31T11:49:20.941Z,60.37
2022-07-31T11:52:30.622Z,63.49
2022-07-31T11:55:09.153Z,60.59
2022-07-31T11:57:52.185Z,59.43
2022-07-31T12:00:27.315Z,60.37
2022-07-31T12:03:02.570Z,58.48
2022-07-31T12:05:44.023Z,59.09
2022-07-31T12:08:17.266Z,58.70
2022-07-31T12:10:52.062Z,58.29
2022-07-31T12:13:25.985Z,59.03
2022-07-31T12:16:00.269Z,59.55
2022-07-31T12:18:46.170Z,60.85
2022-07-31T12:21:19.900Z,62.81
2022-07-31T12:23:53.429Z,59.78
2022-07-31T12:26:27.706Z,59.11
2022-07-31T12:29:01.440Z,56.46
2022-07-31T12:31:44.679Z,56.40
2022-07-31T12:34:27.505Z,58.28
2022-07-31T12:37:01.415Z,56.14
2022-07-31T12:39:53.810Z,55.73
2022-07-31T12:42:33.173Z,57.17
2022-07-31T12:45:17.883Z,55.78
2022-07-31T12:47:54.019Z,53.83
2022-07-31T12:50:28.649Z,56.43
2022-07-31T12:53:03.283Z,55.67
2022-07-31T12:55:36.512Z,52.36
2022-07-31T12:58:08.948Z,56.67
2022-07-31T13:00:41.348Z,55.22
2022-07-31T13:03:13.891Z,55.05
2022-07-31T13:05:50.326Z,53.82
2022-07-31T13:08:24.450Z,56.85
2022-07-31T13:10:57.550Z,57.84
2022-07-31T13:13:29.970Z,52.83
2022-07-31T13:16:02.403Z,55.60
2022-07-31T13:18:36.951Z,54.28
2022-07-31T13:21:09.389Z,55.95
2022-07-31T13:23:41.803Z,52.54
2022-07-31T13:26:14.914Z,54.08
2022-07-31T13:28:47.351Z,52.52
2022-07-31T13:31:19.786Z,49.81
2022-07-31T13:33:52.148Z,52.19
2022-07-31T13:36:25.055Z,51.92
2022-07-31T13:38:57.535Z,52.94
2022-07-31T13:41:31.419Z,53.27
2022-07-31T13:44:04.143Z,52.31
2022-07-31T13:46:36.585Z,54.74
2022-07-31T13:49:09.678Z,54.41
2022-07-31T13:51:42.140Z,55.45
2022-07-31T13:54:15.744Z,54.82
2022-07-31T13:56:48.800Z,55.37
2022-07-31T13:59:22.034Z,55.85
2022-07-31T14:02:03.259Z,54.04
2022-07-31T14:04:46.071Z,55.52
2022-07-31T14:07:18.529Z,53.50
2022-07-31T14:09:55.392Z,55.22
2022-07-31T14:12:28.706Z,52.57
2022-07-31T14:15:03.566Z,52.33
2022-07-31T14:17:36.121Z,53.08
2022-07-31T14:20:09.492Z,51.82
2022-07-31T14:22:42.575Z,56.73
2022-07-31T14:25:14.958Z,50.45
2022-07-31T14:27:49.587Z,51.48
2022-07-31T14:30:22.363Z,51.36
2022-07-31T14:32:55.399Z,50.97
2022-07-31T14:35:27.957Z,47.22
2022-07-31T14:38:03.917Z,47.25
2022-07-31T14:40:37.015Z,48.18
2022-07-31T14:43:10.990Z,46.83
2022-07-31T14:45:51.625Z,49.12
2022-07-31T14:48:24.523Z,49.63
2022-07-31T14:50:57.225Z,49.10
2022-07-31T14:53:29.625Z,49.67
2022-07-31T14:56:03.987Z,48.40
2022-07-31T14:58:57.299Z,46.68
2022-07-31T15:01:30.428Z,48.38
2022-07-31T15:04:03.868Z,49.64
2022-07-31T15:06:51.606Z,48.89
2022-07-31T15:09:28.123Z,48.46
2022-07-31T15:12:01.840Z,46.83
2022-07-31T15:14:35.486Z,48.96
2022-07-31T15:17:08.212Z,49.59
2022-07-31T15:19:40.816Z,49.79
2022-07-31T15:22:17.020Z,50.45
2022-07-31T15:24:50.264Z,49.58
2022-07-31T15:27:24.068Z,49.73
2022-07-31T15:30:05.641Z,48.70
2022-07-31T15:32:40.029Z,50.76
2022-07-31T15:35:13.555Z,49.95
2022-07-31T15:37:46.003Z,48.44
2022-07-31T15:40:18.419Z,46.93
2022-07-31T15:42:52.004Z,47.27
2022-07-31T15:45:25.075Z,47.97
2022-07-31T15:47:57.522Z,47.92
2022-07-31T15:50:29.907Z,48.64
2022-07-31T15:53:02.564Z,49.12
2022-07-31T15:55:35.018Z,47.80
2022-07-31T15:58:07.370Z,48.33
2022-07-31T16:00:40.481Z,48.79
2022-07-31T16:03:17.771Z,49.92
2022-07-31T16:05:55.842Z,48.37
2022-07-31T16:08:35.672Z,49.76
2022-07-31T16:11:08.407Z,49.49
2022-07-31T16:13:40.882Z,48.83
2022-07-31T16:16:13.947Z,49.99
2022-07-31T16:18:46.351Z,50.31
2022-07-31T16:21:18.766Z,50.97
2022-07-31T16:23:51.287Z,49.37
2022-07-31T16:26:23.688Z,49.80
2022-07-31T16:28:56.087Z,50.69
2022-07-31T16:31:30.584Z,50.88
2022-07-31T16:34:03.318Z,49.19
2022-07-31T16:36:35.801Z,53.40
2022-07-31T16:39:20.023Z,52.61
2022-07-31T16:41:54.885Z,51.29
2022-07-31T16:44:27.651Z,49.80
2022-07-31T16:47:00.731Z,50.28
2022-07-31T16:49:36.940Z,50.18
2022-07-31T16:52:09.603Z,52.61
2022-07-31T16:54:41.998Z,52.91
2022-07-31T16:57:14.627Z,52.82
2022-07-31T16:59:56.619Z,56.78
2022-07-31T17:02:30.682Z,57.63
2022-07-31T17:05:03.387Z,57.99
2022-07-31T17:07:35.856Z,55.52
2022-07-31T17:10:09.055Z,57.04
2022-07-31T17:12:41.434Z,57.34
2022-07-31T17:15:13.845Z,56.44
2022-07-31T17:17:47.096Z,59.29
2022-07-31T17:20:22.732Z,61.08
2022-07-31T17:22:55.119Z,60.35
2022-07-31T17:25:27.680Z,62.89
2022-07-31T17:28:00.069Z,62.96
2022-07-31T17:30:32.930Z,63.49
2022-07-31T17:33:06.033Z,63.67
2022-07-31T17:35:38.563Z,63.13
2022-07-31T17:38:10.943Z,62.10
2022-07-31T17:40:44.366Z,62.90
2022-07-31T17:43:16.881Z,63.17
2022-07-31T17:46:05.910Z,64.84
2022-07-31T17:48:42.328Z,65.66
2022-07-31T17:51:14.735Z,66.07
2022-07-31T17:53:55.514Z,66.66
2022-07-31T17:56:31.759Z,64.71
2022-07-31T17:59:05.063Z,65.73
2022-07-31T18:01:37.547Z,67.12
2022-07-31T18:04:10.819Z,68.07
2022-07-31T18:06:52.797Z,69.48
2022-07-31T18:09:27.867Z,70.22
2022-07-31T18:12:00.317Z,70.52
2022-07-31T18:14:32.740Z,71.27
2022-07-31T18:17:05.390Z,71.66
2022-07-31T18:19:38.492Z,71.78
2022-07-31T18:22:11.831Z,73.23
2022-07-31T18:24:44.225Z,72.83
2022-07-31T18:27:17.150Z,72.84
2022-07-31T18:29:56.202Z,74.14
2022-07-31T18:32:30.279Z,74.00
2022-07-31T18:35:04.412Z,74.27
2022-07-31T18:37:37.014Z,74.33
2022-07-31T18:40:10.354Z,74.57
2022-07-31T18:42:43.107Z,74.04
2022-07-31T18:45:15.755Z,74.81
2022-07-31T18:47:49.810Z,75.71
2022-07-31T18:50:58.409Z,75.98
2022-07-31T18:53:15.632Z,75.98
2022-07-31T18:55:48.062Z,75.82
2022-07-31T18:58:20.485Z,77.79
2022-07-31T19:00:55.084Z,78.67
2022-07-31T19:03:29.217Z,78.52
2022-07-31T19:06:02.909Z,79.09
2022-07-31T19:08:35.350Z,79.79
2022-07-31T19:11:07.855Z,80.29
2022-07-31T19:13:40.320Z,80.37
2022-07-31T19:16:12.723Z,80.35
2022-07-31T19:18:49.314Z,81.06
2022-07-31T19:21:42.086Z,80.73
2022-07-31T19:24:16.467Z,80.74
2022-07-31T19:26:49.587Z,80.63
2022-07-31T19:29:22.711Z,81.39
2022-07-31T19:31:55.068Z,81.69
2022-07-31T19:34:31.979Z,81.49
2022-07-31T19:37:08.572Z,81.82
2022-07-31T19:39:42.260Z,81.41
2022-07-31T19:42:14.622Z,81.92
2022-07-31T19:44:47.655Z,82.30
2022-07-31T19:47:21.502Z,81.78
2022-07-31T19:49:53.954Z,82.07
2022-07-31T19:52:27.082Z,82.09
2022-07-31T19:54:59.504Z,76.57
2022-07-31T19:57:31.913Z,77.67
2022-07-31T20:00:05.938Z,77.00
2022-07-31T20:02:39.438Z,76.95
2022-07-31T20:05:12.743Z,78.05
2022-07-31T20:07:45.837Z,78.26
2022-07-31T20:10:18.328Z,78.06
2022-07-31T20:12:50.759Z,78.50
2022-07-31T20:15:23.282Z,74.53
2022-07-31T20:17:56.795Z,73.34
2022-07-31T20:20:29.223Z,74.02
2022-07-31T20:23:02.241Z,77.34
2022-07-31T20:25:34.657Z,79.44
2022-07-31T20:28:07.019Z,80.93
2022-07-31T20:30:39.454Z,81.44
2022-07-31T20:33:13.418Z,81.37
2022-07-31T20:35:48.102Z,81.42
2022-07-31T20:38:23.659Z,80.32
2022-07-31T20:40:56.292Z,78.07
2022-07-31T20:43:29.921Z,77.86
2022-07-31T20:46:02.360Z,77.46
2022-07-31T20:48:38.071Z,76.65
2022-07-31T20:51:18.419Z,76.70
2022-07-31T20:53:51.991Z,76.46
2022-07-31T20:56:24.626Z,76.69
2022-07-31T20:58:57.375Z,76.71
2022-07-31T21:01:29.906Z,79.39
2022-07-31T21:04:02.346Z,79.21
2022-07-31T21:06:36.346Z,80.89
2022-07-31T21:09:09.650Z,80.76
2022-07-31T21:11:42.079Z,77.74
2022-07-31T21:14:14.431Z,80.13
2022-07-31T21:16:46.875Z,81.03
2022-07-31T21:19:19.642Z,80.76
2022-07-31T21:21:52.227Z,80.34
2022-07-31T21:24:25.908Z,80.24
2022-07-31T21:26:59.854Z,80.30
2022-07-31T21:29:32.841Z,81.05
2022-07-31T21:32:06.651Z,81.21
2022-07-31T21:34:39.807Z,81.10
2022-07-31T21:37:16.032Z,81.80
2022-07-31T21:39:49.855Z,82.25
2022-07-31T21:42:22.831Z,80.92
2022-07-31T21:44:57.815Z,81.46
2022-07-31T21:47:52.849Z,82.31
2022-07-31T21:50:29.126Z,81.44
2022-07-31T21:53:01.892Z,81.98
2022-07-31T21:55:35.070Z,81.73
2022-07-31T21:58:08.767Z,82.53
2022-07-31T22:00:41.557Z,83.04
2022-07-31T22:03:14.123Z,80.30
2022-07-31T22:06:13.075Z,82.42
2022-07-31T22:08:45.476Z,83.46
2022-07-31T22:11:18.550Z,84.42
2022-07-31T22:13:51.140Z,84.14
2022-07-31T22:16:23.562Z,83.13
2022-07-31T22:18:56.321Z,83.23
2022-07-31T22:21:29.079Z,82.95
2022-07-31T22:24:02.131Z,83.78
2022-07-31T22:26:35.672Z,83.95
2022-07-31T22:29:08.510Z,83.68
2022-07-31T22:31:49.759Z,84.87
2022-07-31T22:34:36.997Z,85.71
2022-07-31T22:37:10.506Z,85.28
2022-07-31T22:39:45.279Z,85.46
2022-07-31T22:42:19.031Z,86.07
2022-07-31T22:44:51.567Z,85.69
2022-07-31T22:47:26.447Z,85.65
2022-07-31T22:49:59.119Z,84.95
2022-07-31T22:52:35.203Z,84.69
2022-07-31T22:55:10.625Z,85.41
2022-07-31T22:57:44.315Z,86.00
2022-07-31T23:00:17.741Z,86.04
2022-07-31T23:02:50.211Z,86.03
2022-07-31T23:05:22.759Z,85.63
2022-07-31T23:07:55.182Z,85.24
2022-07-31T23:10:27.586Z,84.55
2022-07-31T23:13:00.726Z,85.50
2022-07-31T23:15:33.119Z,85.78
2022-07-31T23:18:05.543Z,83.70
2022-07-31T23:20:37.964Z,84.10
2022-07-31T23:23:10.390Z,85.54
2022-07-31T23:25:42.812Z,85.24
2022-07-31T23:28:15.945Z,85.40
2022-07-31T23:30:48.322Z,86.28
2022-07-31T23:33:20.753Z,86.88
2022-07-31T23:35:53.212Z,87.72
2022-07-31T23:38:25.779Z,88.06
2022-07-31T23:40:58.143Z,88.60
2022-07-31T23:43:31.352Z,87.97
2022-07-31T23:46:04.397Z,88.41
2022-07-31T23:48:39.454Z,87.38
2022-07-31T23:51:11.878Z,87.29
2022-07-31T23:53:44.291Z,87.96
2022-07-31T23:56:19.719Z,87.25
2022-07-31T23:58:53.010Z,86.40
